createdAt,value
2019-03-23T00:02:14.910Z,6.03
2019-03-23T00:04:43.294Z,6.23
2019-03-23T00:07:11.703Z,6.80
2019-03-23T00:09:40.084Z,6.20
2019-03-23T00:12:08.492Z,6.43
2019-03-23T00:14:36.888Z,5.60
2019-03-23T00:17:05.289Z,6.23
2019-03-23T00:19:33.675Z,6.00
2019-03-23T00:22:02.079Z,5.97
2019-03-23T00:24:30.469Z,6.10
2019-03-23T00:26:58.880Z,5.90
2019-03-23T00:29:27.279Z,6.43
2019-03-23T00:31:55.766Z,6.33
2019-03-23T00:34:24.179Z,6.53
2019-03-23T00:36:52.605Z,5.80
2019-03-23T00:39:21.009Z,6.90
2019-03-23T00:41:49.388Z,6.70
2019-03-23T00:44:17.782Z,5.30
2019-03-23T00:46:46.170Z,5.63
2019-03-23T00:49:14.563Z,6.67
2019-03-23T00:51:42.938Z,5.80
2019-03-23T00:54:11.332Z,5.10
2019-03-23T00:56:39.725Z,6.00
2019-03-23T00:59:08.105Z,6.03
2019-03-23T01:01:36.509Z,4.90
2019-03-23T01:04:05.046Z,5.25
2019-03-23T01:06:33.442Z,5.30
2019-03-23T01:09:01.842Z,6.63
2019-03-23T01:11:30.291Z,5.23
2019-03-23T01:13:59.158Z,6.27
2019-03-23T01:16:27.534Z,5.40
2019-03-23T01:18:55.938Z,5.20
2019-03-23T01:21:24.321Z,6.07
2019-03-23T01:23:52.724Z,5.83
2019-03-23T01:26:21.113Z,5.40
2019-03-23T01:28:49.509Z,5.67
2019-03-23T01:31:17.902Z,6.10
2019-03-23T01:33:46.304Z,5.40
2019-03-23T01:36:14.688Z,5.40
2019-03-23T01:38:43.086Z,5.90
2019-03-23T01:41:11.481Z,5.27
2019-03-23T01:43:39.870Z,5.20
2019-03-23T01:46:08.266Z,5.77
2019-03-23T01:48:36.673Z,5.50
2019-03-23T01:51:05.073Z,5.10
2019-03-23T01:53:33.482Z,4.80
2019-03-23T01:56:01.879Z,5.37
2019-03-23T01:58:30.273Z,4.80
2019-03-23T02:00:59.811Z,5.60
2019-03-23T02:03:28.210Z,5.40
2019-03-23T02:05:56.614Z,4.80
2019-03-23T02:11:42.419Z,6.60
2019-03-23T02:14:10.797Z,5.23
2019-03-23T02:16:39.167Z,4.97
2019-03-23T02:19:07.545Z,4.93
2019-03-23T02:21:35.935Z,4.50
2019-03-23T02:24:04.435Z,5.67
2019-03-23T02:26:32.816Z,5.03
2019-03-23T02:29:01.224Z,5.77
2019-03-23T02:31:29.807Z,4.80
2019-03-23T02:33:58.206Z,5.70
2019-03-23T02:36:26.582Z,5.30
2019-03-23T02:38:54.986Z,4.97
2019-03-23T02:41:23.359Z,4.57
2019-03-23T02:43:51.730Z,4.30
2019-03-23T02:46:20.115Z,4.50
2019-03-23T02:48:48.485Z,4.30
2019-03-23T02:51:16.888Z,4.97
2019-03-23T02:53:45.262Z,4.80
2019-03-23T02:56:13.638Z,4.40
2019-03-23T02:58:42.025Z,4.30
2019-03-23T03:01:10.403Z,4.60
2019-03-23T03:03:38.801Z,4.10
2019-03-23T03:06:07.182Z,5.50
2019-03-23T03:08:35.570Z,4.23
2019-03-23T03:11:03.953Z,4.83
2019-03-23T03:13:32.333Z,4.43
2019-03-23T03:16:00.701Z,5.10
2019-03-23T03:18:29.071Z,4.93
2019-03-23T03:20:57.469Z,4.10
2019-03-23T03:23:25.816Z,4.13
2019-03-23T03:25:54.195Z,4.30
2019-03-23T03:28:22.589Z,4.47
2019-03-23T03:30:50.966Z,4.30
2019-03-23T03:33:19.341Z,5.00
2019-03-23T03:35:47.721Z,5.23
2019-03-23T03:38:16.108Z,4.80
2019-03-23T03:40:44.491Z,4.90
2019-03-23T03:43:12.867Z,4.23
2019-03-23T03:45:41.262Z,4.78
2019-03-23T03:48:09.662Z,4.57
2019-03-23T03:50:38.076Z,4.27
2019-03-23T03:53:06.437Z,4.60
2019-03-23T03:55:34.806Z,4.77
2019-03-23T03:58:03.221Z,4.27
2019-03-23T04:00:31.597Z,4.43
2019-03-23T04:03:00.605Z,3.70
2019-03-23T04:05:28.998Z,4.67
2019-03-23T04:08:10.580Z,4.40
2019-03-23T04:10:27.509Z,3.80
2019-03-23T04:12:55.889Z,4.70
2019-03-23T04:15:24.287Z,4.50
2019-03-23T04:17:52.672Z,4.60
2019-03-23T04:20:21.045Z,5.17
2019-03-23T04:22:49.434Z,4.60
2019-03-23T04:25:17.808Z,5.10
2019-03-23T04:27:46.186Z,4.73
2019-03-23T04:30:17.094Z,5.07
2019-03-23T04:32:44.736Z,4.20
2019-03-23T04:35:13.264Z,5.17
2019-03-23T04:37:41.640Z,5.60
2019-03-23T04:40:11.486Z,4.87
2019-03-23T04:42:39.863Z,4.40
2019-03-23T04:45:10.059Z,4.93
2019-03-23T04:47:38.464Z,5.40
2019-03-23T04:50:11.518Z,5.00
2019-03-23T04:52:39.924Z,4.80
2019-03-23T04:55:12.529Z,4.53
2019-03-23T04:57:41.144Z,5.23
2019-03-23T05:00:12.577Z,5.47
2019-03-23T05:02:41.214Z,5.00
2019-03-23T05:05:11.048Z,4.80
2019-03-23T05:07:39.670Z,4.87
2019-03-23T05:10:09.242Z,5.62
2019-03-23T05:12:37.612Z,5.77
2019-03-23T05:15:09.413Z,5.47
2019-03-23T05:17:37.800Z,6.10
2019-03-23T05:20:07.626Z,6.30
2019-03-23T05:22:35.992Z,5.50
2019-03-23T05:25:05.410Z,5.67
2019-03-23T05:27:33.782Z,6.43
2019-03-23T05:30:02.186Z,6.27
2019-03-23T05:32:31.370Z,7.60
2019-03-23T05:34:59.773Z,6.43
2019-03-23T05:37:28.145Z,6.13
2019-03-23T05:39:56.518Z,6.10
2019-03-23T05:42:24.910Z,6.40
2019-03-23T05:44:53.289Z,6.13
2019-03-23T05:47:21.658Z,6.70
2019-03-23T05:49:50.067Z,6.10
2019-03-23T05:52:18.403Z,7.33
2019-03-23T05:54:46.789Z,6.40
2019-03-23T05:57:15.163Z,6.73
2019-03-23T05:59:43.547Z,6.47
2019-03-23T06:02:11.923Z,7.43
2019-03-23T06:04:40.315Z,6.90
2019-03-23T06:07:08.707Z,7.67
2019-03-23T06:09:37.110Z,7.28
2019-03-23T06:12:05.508Z,7.63
2019-03-23T06:14:33.887Z,7.80
2019-03-23T06:17:02.260Z,8.50
2019-03-23T06:19:30.671Z,7.80
2019-03-23T06:21:59.062Z,7.30
2019-03-23T06:24:27.437Z,7.60
2019-03-23T06:26:55.819Z,7.93
2019-03-23T06:29:24.214Z,7.33
2019-03-23T06:31:52.616Z,8.27
2019-03-23T06:34:20.991Z,9.47
2019-03-23T06:36:49.377Z,8.30
2019-03-23T06:39:17.753Z,10.47
2019-03-23T06:41:46.238Z,8.63
2019-03-23T06:44:14.618Z,10.80
2019-03-23T06:46:43.035Z,10.47
2019-03-23T06:49:11.434Z,9.77
2019-03-23T06:51:39.843Z,10.87
2019-03-23T06:54:08.217Z,10.00
2019-03-23T06:56:36.606Z,10.07
2019-03-23T06:59:04.986Z,12.03
2019-03-23T07:01:33.375Z,13.10
2019-03-23T07:04:02.093Z,14.00
2019-03-23T07:06:30.483Z,14.50
2019-03-23T07:08:58.862Z,17.40
2019-03-23T07:11:27.262Z,20.33
2019-03-23T07:13:55.651Z,19.17
2019-03-23T07:16:24.963Z,19.80
2019-03-23T07:18:53.320Z,18.30
2019-03-23T07:21:21.707Z,18.47
2019-03-23T07:23:50.102Z,18.43
2019-03-23T07:26:18.514Z,17.40
2019-03-23T07:28:46.902Z,16.20
2019-03-23T07:31:15.299Z,16.13
2019-03-23T07:33:43.679Z,16.77
2019-03-23T07:36:12.074Z,16.27
2019-03-23T07:38:40.460Z,15.83
2019-03-23T07:41:08.843Z,17.50
2019-03-23T07:43:37.230Z,16.07
2019-03-23T07:46:05.626Z,16.60
2019-03-23T07:48:34.018Z,17.03
2019-03-23T07:51:02.548Z,16.13
2019-03-23T07:53:30.937Z,15.43
2019-03-23T07:55:59.312Z,15.80
2019-03-23T07:58:27.724Z,15.40
2019-03-23T08:00:56.089Z,16.10
2019-03-23T08:03:24.502Z,17.10
2019-03-23T08:05:52.882Z,15.47
2019-03-23T08:08:21.264Z,15.83
2019-03-23T08:10:49.649Z,17.43
2019-03-23T08:13:18.098Z,19.57
2019-03-23T08:15:46.570Z,18.30
2019-03-23T08:18:14.956Z,19.23
2019-03-23T08:20:43.335Z,18.37
2019-03-23T08:23:11.730Z,19.37
2019-03-23T08:25:40.104Z,18.57
2019-03-23T08:28:08.505Z,17.83
2019-03-23T08:30:36.893Z,17.43
2019-03-23T08:33:05.371Z,16.23
2019-03-23T08:35:33.781Z,15.30
2019-03-23T08:38:02.971Z,15.40
2019-03-23T08:40:31.556Z,17.47
2019-03-23T08:42:59.971Z,15.93
2019-03-23T08:45:28.341Z,16.13
2019-03-23T08:47:56.727Z,15.87
2019-03-23T08:50:25.138Z,15.50
2019-03-23T08:52:53.487Z,15.20
2019-03-23T08:55:22.108Z,14.77
2019-03-23T08:57:50.497Z,14.68
2019-03-23T09:00:18.886Z,16.80
2019-03-23T09:02:47.265Z,15.00
2019-03-23T09:05:15.647Z,13.68
2019-03-23T09:07:44.054Z,13.68
2019-03-23T09:10:12.579Z,14.20
2019-03-23T09:12:40.986Z,14.73
2019-03-23T09:15:10.435Z,15.00
2019-03-23T09:17:38.811Z,14.70
2019-03-23T09:20:09.840Z,13.70
2019-03-23T09:22:38.243Z,13.10
2019-03-23T09:25:07.368Z,13.50
2019-03-23T09:27:35.741Z,13.67
2019-03-23T09:30:09.432Z,14.40
2019-03-23T09:32:37.809Z,14.50
2019-03-23T09:35:06.435Z,14.30
2019-03-23T09:37:38.059Z,14.20
2019-03-23T09:40:10.720Z,14.27
2019-03-23T09:42:35.747Z,14.97
2019-03-23T09:45:06.677Z,14.30
2019-03-23T09:47:35.052Z,16.17
2019-03-23T09:50:04.771Z,15.40
2019-03-23T09:52:33.525Z,18.57
2019-03-23T09:55:01.912Z,22.43
2019-03-23T09:57:30.299Z,22.53
2019-03-23T09:59:58.711Z,21.37
2019-03-23T10:02:27.147Z,21.90
2019-03-23T10:04:55.538Z,20.83
2019-03-23T10:07:23.907Z,20.60
2019-03-23T10:09:52.302Z,19.07
2019-03-23T10:12:20.679Z,18.30
2019-03-23T10:14:49.053Z,17.30
2019-03-23T10:17:17.443Z,20.60
2019-03-23T10:19:45.851Z,18.70
2019-03-23T10:22:14.235Z,18.73
2019-03-23T10:24:42.655Z,17.80
2019-03-23T10:27:11.061Z,18.77
2019-03-23T10:29:39.440Z,19.27
2019-03-23T10:32:07.851Z,17.47
2019-03-23T10:34:36.228Z,18.77
2019-03-23T10:37:04.687Z,17.50
2019-03-23T10:39:33.777Z,17.27
2019-03-23T10:42:02.163Z,17.07
2019-03-23T10:44:30.557Z,18.80
2019-03-23T10:46:58.944Z,17.37
2019-03-23T10:49:27.324Z,17.43
2019-03-23T10:51:55.707Z,16.87
2019-03-23T10:54:24.084Z,16.13
2019-03-23T10:56:52.506Z,18.40
2019-03-23T10:59:20.887Z,18.37
2019-03-23T11:01:49.281Z,18.23
2019-03-23T11:04:17.682Z,16.90
2019-03-23T11:06:46.069Z,17.03
2019-03-23T11:09:14.448Z,16.80
2019-03-23T11:11:42.850Z,17.27
2019-03-23T11:14:11.226Z,16.50
2019-03-23T11:16:39.612Z,16.07
2019-03-23T11:19:13.313Z,16.47
2019-03-23T11:21:38.136Z,16.77
2019-03-23T11:24:06.538Z,16.63
2019-03-23T11:26:34.922Z,15.07
2019-03-23T11:29:04.173Z,16.40
2019-03-23T11:31:32.558Z,16.60
2019-03-23T11:34:00.934Z,16.60
2019-03-23T11:36:29.320Z,16.27
2019-03-23T11:38:57.698Z,17.37
2019-03-23T11:41:26.076Z,16.40
2019-03-23T11:43:54.473Z,17.27
2019-03-23T11:46:22.853Z,16.50
2019-03-23T11:48:51.256Z,16.40
2019-03-23T11:51:19.716Z,15.83
2019-03-23T11:53:48.268Z,15.18
2019-03-23T11:56:16.646Z,15.07
2019-03-23T11:58:45.033Z,14.50
2019-03-23T12:01:13.403Z,15.13
2019-03-23T12:03:41.795Z,15.37
2019-03-23T12:06:10.266Z,14.73
2019-03-23T12:08:38.649Z,15.13
2019-03-23T12:11:07.019Z,13.47
2019-03-23T12:13:35.408Z,14.30
2019-03-23T12:16:04.594Z,13.13
2019-03-23T12:18:32.983Z,13.40
2019-03-23T12:21:01.386Z,14.03
2019-03-23T12:23:29.778Z,14.53
2019-03-23T12:25:58.207Z,13.80
2019-03-23T12:28:26.602Z,13.90
2019-03-23T12:30:55.008Z,13.20
2019-03-23T12:33:23.393Z,15.10
2019-03-23T12:35:51.792Z,14.35
2019-03-23T12:38:20.175Z,14.93
2019-03-23T12:40:48.557Z,13.60
2019-03-23T12:43:16.949Z,13.70
2019-03-23T12:45:45.394Z,13.70
2019-03-23T12:48:13.796Z,13.20
2019-03-23T12:50:42.174Z,11.57
2019-03-23T12:53:10.563Z,13.33
2019-03-23T12:55:38.942Z,13.10
2019-03-23T12:58:07.331Z,13.37
2019-03-23T13:00:35.708Z,12.93
2019-03-23T13:03:05.036Z,13.00
2019-03-23T13:05:33.434Z,13.73
2019-03-23T13:08:01.831Z,12.93
2019-03-23T13:10:30.214Z,13.33
2019-03-23T13:12:58.592Z,12.80
2019-03-23T13:15:26.977Z,13.03
2019-03-23T13:17:55.359Z,12.40
2019-03-23T13:20:23.802Z,13.30
2019-03-23T13:22:52.199Z,11.77
2019-03-23T13:25:20.589Z,12.00
2019-03-23T13:27:48.965Z,13.50
2019-03-23T13:30:17.992Z,12.70
2019-03-23T13:32:46.374Z,12.23
2019-03-23T13:35:14.828Z,12.43
2019-03-23T13:37:43.207Z,14.27
2019-03-23T13:40:12.452Z,13.87
2019-03-23T13:42:40.851Z,13.37
2019-03-23T13:45:10.066Z,14.00
2019-03-23T13:47:39.283Z,12.40
2019-03-23T13:50:08.946Z,13.53
2019-03-23T13:52:37.395Z,16.57
2019-03-23T13:55:07.248Z,16.47
2019-03-23T13:57:35.626Z,14.90
2019-03-23T14:00:06.657Z,14.87
2019-03-23T14:02:35.541Z,15.40
2019-03-23T14:05:04.669Z,11.60
2019-03-23T14:07:33.048Z,11.43
2019-03-23T14:10:01.467Z,12.50
2019-03-23T14:12:29.840Z,11.80
2019-03-23T14:14:58.222Z,12.27
2019-03-23T14:17:26.604Z,12.43
2019-03-23T14:19:55.001Z,11.40
2019-03-23T14:22:23.458Z,11.60
2019-03-23T14:24:51.836Z,12.20
2019-03-23T14:27:20.228Z,13.30
2019-03-23T14:29:48.606Z,12.20
2019-03-23T14:32:17.000Z,12.57
2019-03-23T14:34:45.370Z,12.75
2019-03-23T14:37:13.757Z,12.03
2019-03-23T14:39:42.130Z,12.97
2019-03-23T14:42:10.516Z,13.80
2019-03-23T14:44:38.891Z,12.37
2019-03-23T14:47:07.302Z,11.97
2019-03-23T14:49:35.908Z,11.97
2019-03-23T14:52:04.395Z,12.17
2019-03-23T14:54:32.772Z,13.57
2019-03-23T14:57:01.160Z,11.60
2019-03-23T14:59:29.559Z,12.23
2019-03-23T15:01:57.944Z,12.23
2019-03-23T15:04:26.321Z,11.57
2019-03-23T15:06:54.743Z,11.70
2019-03-23T15:09:23.115Z,12.53
2019-03-23T15:11:51.520Z,11.70
2019-03-23T15:14:19.911Z,11.70
2019-03-23T15:16:48.431Z,14.07
2019-03-23T15:19:16.839Z,11.63
2019-03-23T15:21:45.223Z,12.80
2019-03-23T15:24:13.669Z,11.15
2019-03-23T15:26:42.042Z,12.50
2019-03-23T15:29:10.423Z,12.80
2019-03-23T15:31:38.800Z,12.90
2019-03-23T15:34:07.208Z,11.70
2019-03-23T15:36:36.251Z,12.10
2019-03-23T15:39:07.264Z,11.93
2019-03-23T15:41:36.326Z,13.77
2019-03-23T15:44:04.713Z,16.90
2019-03-23T15:46:33.092Z,15.40
2019-03-23T15:49:01.482Z,13.73
2019-03-23T15:51:29.855Z,14.90
2019-03-23T15:53:58.243Z,14.20
2019-03-23T15:56:26.645Z,14.27
2019-03-23T15:58:55.063Z,14.27
2019-03-23T16:01:23.507Z,14.40
2019-03-23T16:03:52.055Z,14.50
2019-03-23T16:06:20.433Z,14.20
2019-03-23T16:08:48.819Z,13.97
2019-03-23T16:11:17.191Z,13.13
2019-03-23T16:13:45.575Z,15.23
2019-03-23T16:16:13.973Z,12.53
2019-03-23T16:18:42.430Z,12.90
2019-03-23T16:21:10.804Z,13.03
2019-03-23T16:23:39.306Z,13.17
2019-03-23T16:26:07.707Z,14.17
2019-03-23T16:28:36.839Z,13.25
2019-03-23T16:31:06.899Z,13.40
2019-03-23T16:33:35.288Z,11.70
2019-03-23T16:36:03.789Z,12.07
2019-03-23T16:38:32.205Z,12.60
2019-03-23T16:41:00.580Z,12.60
2019-03-23T16:43:28.967Z,11.90
2019-03-23T16:45:57.349Z,11.97
2019-03-23T16:48:25.734Z,11.90
2019-03-23T16:50:54.111Z,11.97
2019-03-23T16:53:22.510Z,12.07
2019-03-23T16:55:50.987Z,11.00
2019-03-23T16:58:19.409Z,11.67
2019-03-23T17:00:47.849Z,11.17
2019-03-23T17:03:16.276Z,12.20
2019-03-23T17:05:44.682Z,11.50
2019-03-23T17:08:13.059Z,11.50
2019-03-23T17:10:41.466Z,10.80
2019-03-23T17:13:09.834Z,10.87
2019-03-23T17:15:38.219Z,11.27
2019-03-23T17:18:07.192Z,11.77
2019-03-23T17:20:35.583Z,11.10
2019-03-23T17:23:03.960Z,10.60
2019-03-23T17:25:32.363Z,9.93
2019-03-23T17:28:00.752Z,10.33
2019-03-23T17:30:29.164Z,11.80
2019-03-23T17:32:57.535Z,10.80
2019-03-23T17:35:25.924Z,10.97
2019-03-23T17:37:55.306Z,10.90
2019-03-23T17:40:23.753Z,11.57
2019-03-23T17:42:52.134Z,11.90
2019-03-23T17:45:20.620Z,11.77
2019-03-23T17:47:49.019Z,9.77
2019-03-23T17:50:17.409Z,10.37
2019-03-23T17:52:46.017Z,11.03
2019-03-23T17:55:14.472Z,10.40
2019-03-23T17:57:42.876Z,10.37
2019-03-23T18:00:12.292Z,11.87
2019-03-23T18:02:40.651Z,11.40
2019-03-23T18:05:12.243Z,11.27
2019-03-23T18:07:40.744Z,11.50
2019-03-23T18:10:09.861Z,11.70
2019-03-23T18:12:38.263Z,10.10
2019-03-23T18:15:08.932Z,10.63
2019-03-23T18:17:37.737Z,11.83
2019-03-23T18:20:06.851Z,10.87
2019-03-23T18:22:35.311Z,10.17
2019-03-23T18:25:04.624Z,11.83
2019-03-23T18:27:33.036Z,11.13
2019-03-23T18:30:01.441Z,10.80
2019-03-23T18:32:29.826Z,10.83
2019-03-23T18:34:58.264Z,9.90
2019-03-23T18:37:26.672Z,11.47
2019-03-23T18:39:55.046Z,11.63
2019-03-23T18:42:23.430Z,10.85
2019-03-23T18:44:51.833Z,11.40
2019-03-23T18:47:20.216Z,10.90
2019-03-23T18:49:48.592Z,11.00
2019-03-23T18:52:16.975Z,11.47
2019-03-23T18:54:45.353Z,11.70
2019-03-23T18:57:13.744Z,10.93
2019-03-23T18:59:42.145Z,11.53
2019-03-23T19:02:10.532Z,10.63
2019-03-23T19:04:38.908Z,10.80
2019-03-23T19:07:08.136Z,11.97
2019-03-23T19:09:36.520Z,21.50
2019-03-23T19:12:04.992Z,34.17
2019-03-23T19:14:33.373Z,28.27
2019-03-23T19:17:01.782Z,38.40
2019-03-23T19:19:30.182Z,49.90
2019-03-23T19:21:58.577Z,55.43
2019-03-23T19:24:26.980Z,49.37
2019-03-23T19:26:55.360Z,48.73
2019-03-23T19:29:23.746Z,71.80
2019-03-23T19:31:52.127Z,80.70
2019-03-23T19:34:20.516Z,87.80
2019-03-23T19:36:48.914Z,87.00
2019-03-23T19:39:17.371Z,84.67
2019-03-23T19:41:45.739Z,81.27
2019-03-23T19:44:14.130Z,84.97
2019-03-23T19:46:42.515Z,87.17
2019-03-23T19:49:10.903Z,84.87
2019-03-23T19:51:39.302Z,73.70
2019-03-23T19:54:08.407Z,66.17
2019-03-23T19:56:36.783Z,60.00
2019-03-23T19:59:05.434Z,56.00
2019-03-23T20:01:33.822Z,52.63
2019-03-23T20:04:02.209Z,50.60
2019-03-23T20:06:30.602Z,49.20
2019-03-23T20:08:58.997Z,48.50
2019-03-23T20:11:27.513Z,49.17
2019-03-23T20:13:59.027Z,48.17
2019-03-23T20:16:26.114Z,46.07
2019-03-23T20:18:54.515Z,46.90
2019-03-23T20:21:22.911Z,44.25
2019-03-23T20:23:51.411Z,43.93
2019-03-23T20:26:20.343Z,41.47
2019-03-23T20:28:48.777Z,42.20
2019-03-23T20:31:17.307Z,39.87
2019-03-23T20:33:45.827Z,41.40
2019-03-23T20:36:14.210Z,39.88
2019-03-23T20:38:42.747Z,38.70
2019-03-23T20:41:11.124Z,37.93
2019-03-23T20:43:39.560Z,37.47
2019-03-23T20:46:09.148Z,37.58
2019-03-23T20:48:38.525Z,34.80
2019-03-23T20:51:06.915Z,35.10
2019-03-23T20:53:35.387Z,36.10
2019-03-23T20:56:03.774Z,36.23
2019-03-23T20:58:32.211Z,31.43
2019-03-23T21:01:00.572Z,30.37
2019-03-23T21:03:28.960Z,28.20
2019-03-23T21:05:57.353Z,28.83
2019-03-23T21:08:25.733Z,29.37
2019-03-23T21:10:54.158Z,27.83
2019-03-23T21:13:22.634Z,29.40
2019-03-23T21:15:51.039Z,28.37
2019-03-23T21:18:19.421Z,25.25
2019-03-23T21:20:47.978Z,26.45
2019-03-23T21:23:16.355Z,24.67
2019-03-23T21:25:44.818Z,26.77
2019-03-23T21:28:13.200Z,23.77
2019-03-23T21:30:41.623Z,24.90
2019-03-23T21:33:10.017Z,25.33
2019-03-23T21:35:39.251Z,21.93
2019-03-23T21:38:07.659Z,23.40
2019-03-23T21:40:36.044Z,21.60
2019-03-23T21:43:04.492Z,22.23
2019-03-23T21:45:32.879Z,23.93
2019-03-23T21:48:01.262Z,21.27
2019-03-23T21:50:29.795Z,20.07
2019-03-23T21:52:58.166Z,21.90
2019-03-23T21:55:26.546Z,20.05
2019-03-23T21:57:54.944Z,20.17
2019-03-23T22:00:31.441Z,20.30
2019-03-23T22:03:00.104Z,19.73
2019-03-23T22:05:28.466Z,18.33
2019-03-23T22:07:56.924Z,18.63
2019-03-23T22:10:25.316Z,17.80
2019-03-23T22:12:53.721Z,17.50
2019-03-23T22:15:22.106Z,18.00
2019-03-23T22:17:50.504Z,16.27
2019-03-23T22:20:18.964Z,17.40
2019-03-23T22:22:47.441Z,17.20
2019-03-23T22:25:15.814Z,16.47
2019-03-23T22:27:44.320Z,16.67
2019-03-23T22:30:16.140Z,18.20
2019-03-23T22:32:44.534Z,16.47
2019-03-23T22:35:13.051Z,14.80
2019-03-23T22:37:41.445Z,16.03
2019-03-23T22:40:12.932Z,16.77
2019-03-23T22:42:41.328Z,15.83
2019-03-23T22:45:10.029Z,15.80
2019-03-23T22:47:38.420Z,15.60
2019-03-23T22:50:07.425Z,15.90
2019-03-23T22:52:35.809Z,16.40
2019-03-23T22:55:05.645Z,15.37
2019-03-23T22:57:34.112Z,13.23
2019-03-23T23:00:02.505Z,15.90
2019-03-23T23:02:30.896Z,13.33
2019-03-23T23:04:59.299Z,15.00
2019-03-23T23:07:27.689Z,13.50
2019-03-23T23:09:56.069Z,13.58
2019-03-23T23:12:24.536Z,13.33
2019-03-23T23:15:03.799Z,12.95
2019-03-23T23:17:23.001Z,13.90
2019-03-23T23:19:51.456Z,13.88
2019-03-23T23:22:19.831Z,12.67
2019-03-23T23:24:48.217Z,13.63
2019-03-23T23:27:16.618Z,13.77
2019-03-23T23:29:45.013Z,14.17
2019-03-23T23:32:13.485Z,13.43
2019-03-23T23:34:41.879Z,12.07
2019-03-23T23:37:10.284Z,13.03
2019-03-23T23:39:38.674Z,13.33
2019-03-23T23:42:07.163Z,12.93
2019-03-23T23:44:37.008Z,13.10
2019-03-23T23:47:05.427Z,13.00
2019-03-23T23:49:33.841Z,11.67
2019-03-23T23:52:02.243Z,13.77
2019-03-23T23:54:30.635Z,12.70
2019-03-23T23:56:59.024Z,11.57
2019-03-23T23:59:27.841Z,12.87
